Time;durP1;ratioP1;P1;durP2;ratioP2;P2;SDS_P1;SDS_P2;PMS_P1;PMS_P2;Temp;Humidity;BMP_temperature;BMP_pressure;BME280_temperature;BME280_humidity;BME280_pressure;Samples;Min_cycle;Max_cycle;Signal;HPM_P1;HPM_P2
2022/10/20 00:00:23;;;;;;;13.20;10.74;;;7.30;99.90;;;;;;4679560;28;10001011;-75
2022/10/20 00:02:49;;;;;;;13.70;11.13;;;7.30;99.90;;;;;;5025412;28;20033;-75
2022/10/20 00:05:15;;;;;;;12.88;10.50;;;7.30;99.90;;;;;;5015881;28;20299;-75
2022/10/20 00:07:40;;;;;;;10.75;9.00;;;7.30;99.90;;;;;;5027838;28;20033;-74
2022/10/20 00:10:06;;;;;;;12.68;10.57;;;7.20;99.90;;;;;;5033417;28;20026;-75
2022/10/20 00:12:32;;;;;;;13.50;11.20;;;7.20;99.90;;;;;;5025827;28;20245;-75
2022/10/20 00:14:57;;;;;;;12.57;10.52;;;7.20;99.90;;;;;;5035456;28;20035;-75
2022/10/20 00:17:23;;;;;;;14.90;10.57;;;7.10;99.90;;;;;;5031448;28;20178;-75
2022/10/20 00:19:49;;;;;;;13.23;10.50;;;7.10;99.90;;;;;;5022078;28;20299;-75
2022/10/20 00:22:15;;;;;;;12.50;9.48;;;7.10;99.90;;;;;;5024066;28;20088;-75
2022/10/20 00:24:41;;;;;;;11.57;10.48;;;7.10;99.90;;;;;;5030664;28;20083;-75
2022/10/20 00:27:07;;;;;;;13.00;10.88;;;7.00;99.90;;;;;;5032768;28;20086;-75
2022/10/20 00:29:32;;;;;;;12.63;11.27;;;7.10;99.90;;;;;;5031009;28;20159;-75
2022/10/20 00:31:58;;;;;;;15.65;11.38;;;7.10;99.90;;;;;;5031618;28;20378;-75
2022/10/20 00:34:24;;;;;;;14.05;10.80;;;7.20;99.90;;;;;;5032503;28;20171;-75
2022/10/20 00:36:49;;;;;;;11.80;10.55;;;7.20;99.90;;;;;;5031258;28;20071;-75
2022/10/20 00:39:15;;;;;;;13.55;10.85;;;7.20;99.90;;;;;;5026947;28;20033;-75
2022/10/20 00:41:41;;;;;;;15.18;9.98;;;7.20;99.90;;;;;;5036154;28;20029;-75
2022/10/20 00:44:44;;;;;;;11.70;10.45;;;7.10;99.90;;;;;;5032789;28;20041;-75
2022/10/20 00:47:35;;;;;;;10.90;9.77;;;7.10;99.90;;;;;;5035786;28;21292;-75
2022/10/20 00:50:09;;;;;;;12.88;10.05;;;7.00;99.90;;;;;;5037666;28;20030;-75
2022/10/20 00:52:37;;;;;;;11.18;9.60;;;6.90;99.90;;;;;;5030613;28;20028;-74
2022/10/20 00:55:03;;;;;;;13.65;11.88;;;6.90;99.90;;;;;;5027326;28;20039;-74
2022/10/20 00:57:30;;;;;;;12.18;10.60;;;6.90;99.90;;;;;;5034845;28;20036;-74
2022/10/20 00:59:56;;;;;;;10.90;9.80;;;6.90;99.90;;;;;;5031545;28;20160;-74
2022/10/20 01:02:22;;;;;;;13.07;11.32;;;6.90;99.90;;;;;;5024415;28;20025;-75
2022/10/20 01:04:48;;;;;;;12.88;11.05;;;6.80;99.90;;;;;;5030451;28;20079;-75
2022/10/20 01:07:14;;;;;;;13.65;10.70;;;6.80;99.90;;;;;;5036581;28;20107;-75
2022/10/20 01:09:39;;;;;;;11.82;10.60;;;6.80;99.90;;;;;;5031692;28;20699;-75
2022/10/20 01:12:25;;;;;;;14.32;11.65;;;6.80;99.90;;;;;;5019798;28;20021;-75
2022/10/20 01:14:56;;;;;;;11.68;10.43;;;6.70;99.90;;;;;;5028459;28;20512;-74
2022/10/20 01:17:43;;;;;;;12.23;10.55;;;6.70;99.90;;;;;;5031288;28;20688;-75
2022/10/20 01:20:27;;;;;;;12.85;10.75;;;6.60;99.90;;;;;;5032357;28;20030;-74
2022/10/20 01:23:14;;;;;;;14.70;11.32;;;6.60;99.90;;;;;;5032490;28;20035;-75
2022/10/20 01:26:07;;;;;;;13.00;11.40;;;6.60;99.90;;;;;;5033888;28;20448;-75
2022/10/20 01:28:38;;;;;;;13.85;11.75;;;6.70;99.90;;;;;;5035848;28;20029;-74
2022/10/20 01:31:24;;;;;;;14.23;11.75;;;6.70;99.90;;;;;;5031367;28;20115;-75
2022/10/20 01:33:58;;;;;;;13.75;11.25;;;6.80;99.90;;;;;;5029361;28;20497;-75
2022/10/20 01:36:35;;;;;;;15.98;11.75;;;6.80;99.90;;;;;;5043173;28;20395;-75
2022/10/20 01:39:08;;;;;;;14.23;11.95;;;6.80;99.90;;;;;;5031569;28;20099;-75
2022/10/20 01:41:46;;;;;;;13.40;11.63;;;6.80;99.90;;;;;;5037155;28;20037;-75
2022/10/20 01:44:15;;;;;;;16.95;12.45;;;6.80;99.90;;;;;;5031535;28;20172;-75
2022/10/20 01:46:43;;;;;;;12.25;10.93;;;6.80;99.90;;;;;;5032394;28;20036;-75
2022/10/20 01:49:10;;;;;;;12.27;11.02;;;6.80;99.90;;;;;;5046159;28;20028;-75
2022/10/20 01:51:35;;;;;;;13.13;10.98;;;6.70;99.90;;;;;;5039471;28;20534;-75
2022/10/20 01:54:01;;;;;;;15.00;12.10;;;6.60;99.90;;;;;;5031228;28;20037;-75
2022/10/20 01:56:50;;;;;;;16.33;12.57;;;6.50;99.90;;;;;;5031134;28;20032;-75
2022/10/20 01:59:31;;;;;;;18.88;12.25;;;6.50;99.90;;;;;;5029040;28;20061;-74
2022/10/20 02:02:24;;;;;;;12.05;10.82;;;6.60;99.90;;;;;;5027312;28;20029;-74
2022/10/20 02:05:10;;;;;;;12.25;11.00;;;6.60;99.90;;;;;;5035980;28;20025;-75
2022/10/20 02:07:36;;;;;;;16.13;11.00;;;6.60;99.90;;;;;;5028299;28;20033;-75
2022/10/20 02:10:17;;;;;;;11.80;10.30;;;6.70;99.90;;;;;;5034647;28;20018;-75
2022/10/20 02:12:46;;;;;;;14.80;12.00;;;6.70;99.90;;;;;;5036398;28;20137;-75
2022/10/20 02:15:16;;;;;;;14.38;10.93;;;6.70;99.90;;;;;;5023044;28;20120;-75
2022/10/20 02:17:45;;;;;;;12.82;10.98;;;6.70;99.90;;;;;;5032754;28;20393;-75
2022/10/20 02:20:11;;;;;;;16.30;11.20;;;6.70;99.90;;;;;;5031003;28;20091;-75
2022/10/20 02:22:38;;;;;;;14.20;10.90;;;6.60;99.90;;;;;;5035743;28;20033;-74
2022/10/20 02:25:05;;;;;;;12.07;10.73;;;6.50;99.90;;;;;;5040008;28;20056;-75
2022/10/20 02:27:35;;;;;;;18.48;12.82;;;6.50;99.90;;;;;;5040641;28;20505;-75
2022/10/20 02:30:07;;;;;;;16.95;12.85;;;6.50;99.90;;;;;;5033378;28;20045;-75
2022/10/20 02:32:35;;;;;;;13.55;11.93;;;6.50;99.90;;;;;;5036658;28;20112;-75
2022/10/20 02:35:08;;;;;;;15.85;11.45;;;6.50;99.90;;;;;;5032282;28;20038;-75
2022/10/20 02:37:33;;;;;;;12.73;11.02;;;6.40;99.90;;;;;;5030996;28;20120;-75
2022/10/20 02:39:59;;;;;;;13.18;11.20;;;6.40;99.90;;;;;;5040062;28;20513;-75
2022/10/20 02:42:25;;;;;;;14.13;11.48;;;6.40;99.90;;;;;;5028408;28;20040;-75
2022/10/20 02:44:51;;;;;;;13.32;11.30;;;6.30;99.90;;;;;;5032625;28;20045;-74
2022/10/20 02:47:19;;;;;;;18.17;13.02;;;6.30;99.90;;;;;;5029127;28;20025;-74
2022/10/20 02:49:45;;;;;;;18.00;12.27;;;6.30;99.90;;;;;;5045464;28;20064;-75
2022/10/20 02:52:11;;;;;;;16.48;12.70;;;6.30;99.90;;;;;;5030783;28;20178;-75
2022/10/20 02:54:36;;;;;;;14.05;12.57;;;6.30;99.90;;;;;;5026865;28;20033;-75
2022/10/20 02:57:02;;;;;;;13.57;11.60;;;6.30;99.90;;;;;;5030966;28;20032;-75
2022/10/20 02:59:28;;;;;;;13.80;11.52;;;6.30;99.90;;;;;;5027118;28;20025;-75
2022/10/20 03:01:53;;;;;;;13.68;11.80;;;6.30;99.90;;;;;;5025708;28;20033;-75
2022/10/20 03:04:19;;;;;;;14.43;12.23;;;6.30;99.90;;;;;;5039233;28;20048;-76
2022/10/20 03:06:44;;;;;;;14.23;11.77;;;6.30;99.90;;;;;;5027873;28;20559;-75
2022/10/20 03:09:10;;;;;;;11.57;10.27;;;6.40;99.90;;;;;;5034046;28;20111;-76
2022/10/20 03:11:36;;;;;;;13.18;11.15;;;6.30;99.90;;;;;;5033089;28;20032;-74
2022/10/20 03:14:02;;;;;;;11.88;10.30;;;6.40;99.90;;;;;;5034130;28;20120;-75
2022/10/20 03:16:28;;;;;;;11.60;10.40;;;6.30;99.90;;;;;;5029699;28;20025;-75
2022/10/20 03:18:53;;;;;;;12.75;9.95;;;6.30;99.90;;;;;;5030154;28;20040;-75
2022/10/20 03:21:19;;;;;;;11.95;9.80;;;6.30;99.90;;;;;;5032623;28;20040;-74
2022/10/20 03:23:45;;;;;;;11.75;10.55;;;6.30;99.90;;;;;;5029679;28;20088;-74
2022/10/20 03:26:11;;;;;;;11.27;10.18;;;6.30;99.90;;;;;;5028080;28;20041;-75
2022/10/20 03:28:38;;;;;;;13.32;10.25;;;6.30;99.90;;;;;;5028497;28;20075;-74
2022/10/20 03:31:04;;;;;;;13.27;10.70;;;6.30;99.90;;;;;;5034117;28;20048;-74
2022/10/20 03:33:29;;;;;;;12.15;10.85;;;6.40;99.90;;;;;;5034711;28;20037;-75
2022/10/20 03:35:55;;;;;;;13.80;10.88;;;6.40;99.90;;;;;;5041648;28;20021;-75
2022/10/20 03:38:21;;;;;;;14.35;11.70;;;6.40;99.90;;;;;;5040655;28;20107;-75
2022/10/20 03:40:46;;;;;;;13.98;10.48;;;6.30;99.90;;;;;;5033964;28;20044;-74
2022/10/20 03:43:14;;;;;;;10.88;9.77;;;6.30;99.90;;;;;;5029619;28;20028;-74
2022/10/20 03:45:40;;;;;;;12.73;10.27;;;6.30;99.90;;;;;;5029076;28;20040;-74
2022/10/20 03:48:06;;;;;;;15.15;10.90;;;6.20;99.90;;;;;;5033056;28;20807;-75
2022/10/20 03:50:32;;;;;;;11.43;10.23;;;6.20;99.90;;;;;;5041824;28;20100;-74
2022/10/20 03:52:57;;;;;;;14.32;9.95;;;6.30;99.90;;;;;;5037028;28;20044;-75
2022/10/20 03:55:23;;;;;;;11.85;9.85;;;6.30;99.90;;;;;;5043973;28;20025;-75
2022/10/20 03:57:48;;;;;;;10.30;9.30;;;6.20;99.90;;;;;;5029770;28;20572;-75
2022/10/20 04:00:14;;;;;;;17.25;11.35;;;6.20;99.90;;;;;;5030694;28;20397;-75
2022/10/20 04:02:44;;;;;;;12.95;9.88;;;6.20;99.90;;;;;;5025946;28;20059;-75
2022/10/20 04:05:13;;;;;;;13.25;10.15;;;6.20;99.90;;;;;;5024072;28;20029;-75
2022/10/20 04:07:38;;;;;;;10.80;9.05;;;6.10;99.90;;;;;;5034180;28;20036;-75
2022/10/20 04:10:04;;;;;;;11.40;9.20;;;6.00;99.90;;;;;;5031053;28;20009;-75
2022/10/20 04:12:30;;;;;;;10.55;9.05;;;6.10;99.90;;;;;;5034854;28;20144;-75
2022/10/20 04:14:56;;;;;;;10.73;9.13;;;6.00;99.90;;;;;;5031821;28;20029;-75
2022/10/20 04:17:22;;;;;;;16.50;10.82;;;6.00;99.90;;;;;;5033933;28;20029;-75
2022/10/20 04:19:47;;;;;;;11.80;10.60;;;6.00;99.90;;;;;;5031730;28;20138;-75
2022/10/20 04:22:13;;;;;;;12.70;10.27;;;6.00;99.90;;;;;;5027468;28;20401;-75
2022/10/20 04:24:39;;;;;;;11.93;10.40;;;5.90;99.90;;;;;;5031541;28;20033;-75
2022/10/20 04:27:05;;;;;;;12.02;10.73;;;5.90;99.90;;;;;;5027029;28;20026;-74
2022/10/20 04:29:30;;;;;;;15.93;11.82;;;6.00;99.90;;;;;;5031150;28;20426;-74
2022/10/20 04:31:56;;;;;;;16.58;12.45;;;6.00;99.90;;;;;;5032803;28;20477;-74
2022/10/20 04:34:22;;;;;;;14.85;11.73;;;6.10;99.90;;;;;;5027147;28;20063;-75
2022/10/20 04:36:48;;;;;;;14.30;11.90;;;6.10;99.90;;;;;;5026043;28;20025;-74
2022/10/20 04:39:13;;;;;;;15.35;11.70;;;6.20;99.90;;;;;;5032789;28;20091;-75
2022/10/20 04:41:39;;;;;;;13.57;10.75;;;6.30;99.90;;;;;;5026878;28;20661;-74
2022/10/20 04:44:05;;;;;;;15.60;11.02;;;6.30;99.90;;;;;;5024726;28;20040;-74
2022/10/20 04:46:30;;;;;;;17.13;11.52;;;6.30;99.90;;;;;;5029198;28;20056;-74
2022/10/20 04:48:56;;;;;;;13.15;10.93;;;6.30;99.90;;;;;;5026858;28;20253;-74
2022/10/20 04:51:22;;;;;;;11.50;10.00;;;6.30;99.90;;;;;;5036676;28;20386;-75
2022/10/20 04:53:47;;;;;;;12.63;10.70;;;6.30;99.90;;;;;;5037022;28;20034;-74
2022/10/20 04:56:19;;;;;;;13.63;10.57;;;6.30;99.90;;;;;;5027871;28;20033;-75
2022/10/20 04:58:53;;;;;;;13.80;10.60;;;6.20;99.90;;;;;;5030450;28;20044;-75
2022/10/20 05:01:21;;;;;;;13.07;10.50;;;6.10;99.90;;;;;;5031082;28;20033;-74
2022/10/20 05:03:47;;;;;;;13.07;11.13;;;6.10;99.90;;;;;;5035870;28;20032;-74
2022/10/20 05:06:15;;;;;;;16.98;11.38;;;6.00;99.90;;;;;;5032564;28;20029;-75
2022/10/20 05:08:43;;;;;;;13.25;10.93;;;6.10;99.90;;;;;;5030296;28;20025;-75
2022/10/20 05:11:10;;;;;;;13.95;10.77;;;6.00;99.90;;;;;;5030272;28;20030;-75
2022/10/20 05:13:36;;;;;;;13.93;10.25;;;6.00;99.90;;;;;;5034288;28;20440;-75
2022/10/20 05:16:02;;;;;;;13.85;11.27;;;5.90;99.90;;;;;;5030716;28;20063;-75
2022/10/20 05:18:28;;;;;;;14.77;11.45;;;5.90;99.90;;;;;;5027485;28;20112;-75
2022/10/20 05:20:53;;;;;;;14.48;11.88;;;5.80;99.90;;;;;;5025839;28;20108;-74
2022/10/20 05:23:19;;;;;;;13.40;10.57;;;5.90;99.90;;;;;;5030434;28;20036;-75
2022/10/20 05:25:45;;;;;;;13.15;10.85;;;5.90;99.90;;;;;;5027568;28;20646;-75
2022/10/20 05:28:10;;;;;;;11.48;9.77;;;5.90;99.90;;;;;;5035973;28;20021;-75
2022/10/20 05:30:37;;;;;;;13.30;10.68;;;5.90;99.90;;;;;;5030127;28;20041;-75
2022/10/20 05:33:03;;;;;;;13.43;11.07;;;6.00;99.90;;;;;;5036258;28;20025;-75
2022/10/20 05:35:29;;;;;;;17.88;11.48;;;6.00;99.90;;;;;;5031661;28;20517;-75
2022/10/20 05:37:55;;;;;;;13.20;11.07;;;6.10;99.90;;;;;;5036910;28;20543;-75
2022/10/20 05:40:21;;;;;;;14.05;11.13;;;6.10;99.90;;;;;;5038814;28;20033;-75
2022/10/20 05:42:47;;;;;;;20.15;11.50;;;6.10;99.90;;;;;;5024669;28;20033;-74
2022/10/20 05:45:13;;;;;;;19.80;11.23;;;6.10;99.90;;;;;;5028527;28;20455;-74
2022/10/20 05:47:39;;;;;;;16.77;11.45;;;6.10;99.90;;;;;;5033998;28;20119;-74
2022/10/20 05:50:05;;;;;;;17.33;11.95;;;6.10;99.90;;;;;;5028346;28;20076;-74
2022/10/20 05:52:30;;;;;;;15.57;11.20;;;6.10;99.90;;;;;;5031537;28;20036;-74
2022/10/20 05:54:56;;;;;;;14.80;11.18;;;6.20;99.90;;;;;;5031143;28;20025;-74
2022/10/20 05:57:22;;;;;;;14.18;10.70;;;6.20;99.90;;;;;;5030175;28;20549;-74
2022/10/20 05:59:47;;;;;;;16.05;12.18;;;6.20;99.90;;;;;;5033673;28;20397;-73
2022/10/20 06:02:13;;;;;;;14.88;11.77;;;6.20;99.90;;;;;;5025002;28;20029;-74
2022/10/20 06:04:39;;;;;;;15.27;11.15;;;6.20;99.90;;;;;;5030435;28;20048;-74
2022/10/20 06:07:05;;;;;;;17.48;10.98;;;6.20;99.90;;;;;;5029273;28;20071;-73
2022/10/20 06:09:31;;;;;;;15.10;11.50;;;6.20;99.90;;;;;;5019581;28;20030;-74
2022/10/20 06:11:57;;;;;;;17.02;10.98;;;6.20;99.90;;;;;;5026538;28;20018;-74
2022/10/20 06:14:24;;;;;;;16.27;11.27;;;6.20;99.90;;;;;;5032719;28;20029;-75
2022/10/20 06:16:51;;;;;;;16.02;11.60;;;6.30;99.90;;;;;;5031127;28;20036;-74
2022/10/20 06:19:17;;;;;;;19.63;11.70;;;6.30;99.90;;;;;;5030846;28;20033;-74
2022/10/20 06:21:44;;;;;;;15.50;11.90;;;6.30;99.90;;;;;;5039862;28;20031;-74
2022/10/20 06:24:10;;;;;;;15.88;11.13;;;6.30;99.90;;;;;;5029639;28;20051;-75
2022/10/20 06:26:36;;;;;;;13.07;11.18;;;6.30;99.90;;;;;;5036411;28;20044;-75
2022/10/20 06:29:05;;;;;;;17.33;11.70;;;6.40;99.90;;;;;;5032868;28;20065;-75
2022/10/20 06:31:37;;;;;;;18.63;11.65;;;6.40;99.90;;;;;;5035200;28;20089;-74
2022/10/20 06:34:05;;;;;;;11.98;8.35;;;6.40;99.90;;;;;;5034689;28;20029;-74
2022/10/20 06:36:34;;;;;;;17.40;11.77;;;6.50;99.90;;;;;;5037326;28;20397;-75
2022/10/20 06:39:00;;;;;;;16.95;11.27;;;6.50;99.90;;;;;;5032008;28;20291;-74
2022/10/20 06:41:27;;;;;;;16.23;11.27;;;6.60;99.90;;;;;;5035572;28;20104;-74
2022/10/20 06:43:57;;;;;;;12.25;10.73;;;6.60;99.90;;;;;;5025682;28;20036;-74
2022/10/20 06:46:23;;;;;;;13.60;10.32;;;6.60;99.90;;;;;;5035581;28;20033;-75
2022/10/20 06:48:49;;;;;;;12.23;9.93;;;6.60;99.90;;;;;;5037305;28;20501;-75
2022/10/20 06:51:23;;;;;;;13.77;10.60;;;6.60;99.90;;;;;;5035463;28;20151;-74
2022/10/20 06:53:50;;;;;;;11.77;10.35;;;6.60;99.90;;;;;;5023230;28;20417;-74
2022/10/20 06:56:18;;;;;;;16.55;9.93;;;6.60;99.90;;;;;;5027759;28;20028;-74
2022/10/20 06:58:46;;;;;;;12.70;9.40;;;6.60;99.90;;;;;;5037402;28;20044;-74
2022/10/20 07:01:23;;;;;;;12.52;10.18;;;6.70;99.90;;;;;;5034188;28;20033;-74
2022/10/20 07:03:52;;;;;;;17.27;10.82;;;6.70;99.90;;;;;;5033356;28;20037;-74
2022/10/20 07:06:25;;;;;;;14.00;10.38;;;6.70;99.90;;;;;;5026964;28;20570;-74
2022/10/20 07:08:52;;;;;;;13.02;10.05;;;6.80;99.90;;;;;;5033837;28;20128;-74
2022/10/20 07:11:19;;;;;;;12.80;10.10;;;6.80;99.90;;;;;;5035850;28;20049;-74
2022/10/20 07:13:46;;;;;;;15.98;11.65;;;6.90;99.90;;;;;;5030366;28;20044;-74
2022/10/20 07:16:14;;;;;;;24.85;14.13;;;6.90;99.90;;;;;;5035461;28;20082;-74
2022/10/20 07:18:40;;;;;;;26.08;14.70;;;7.00;99.90;;;;;;5030873;28;20041;-74
2022/10/20 07:21:17;;;;;;;22.80;14.10;;;7.00;99.90;;;;;;5030582;28;20465;-74
2022/10/20 07:23:44;;;;;;;22.90;13.98;;;7.10;99.90;;;;;;5028505;28;20501;-74
2022/10/20 07:26:15;;;;;;;19.45;14.25;;;7.20;99.90;;;;;;5028167;28;20013;-74
2022/10/20 07:28:43;;;;;;;16.45;12.55;;;7.30;99.90;;;;;;5027952;28;20033;-74
2022/10/20 07:31:17;;;;;;;17.88;12.30;;;7.40;99.90;;;;;;5028141;28;20083;-74
2022/10/20 07:33:44;;;;;;;14.88;11.73;;;7.40;99.90;;;;;;5031585;28;20033;-75
2022/10/20 07:36:14;;;;;;;15.40;11.50;;;7.50;99.90;;;;;;5033599;28;20026;-74
2022/10/20 07:38:40;;;;;;;18.85;13.75;;;7.60;99.90;;;;;;5029118;28;20609;-74
2022/10/20 07:41:05;;;;;;;22.55;15.35;;;7.70;99.90;;;;;;5026696;28;20032;-75
2022/10/20 07:43:31;;;;;;;22.02;15.25;;;7.80;99.90;;;;;;5027841;28;20397;-75
2022/10/20 07:45:57;;;;;;;19.80;13.95;;;7.90;99.90;;;;;;5032218;28;20037;-74
2022/10/20 07:48:22;;;;;;;16.05;12.88;;;7.90;99.90;;;;;;5033308;28;20037;-74
2022/10/20 07:50:48;;;;;;;17.08;11.85;;;8.00;99.90;;;;;;5029222;28;20037;-75
2022/10/20 07:53:14;;;;;;;14.38;11.52;;;8.10;99.90;;;;;;5034641;28;20025;-75
2022/10/20 07:55:39;;;;;;;12.90;10.63;;;8.10;99.90;;;;;;5029498;28;20116;-75
2022/10/20 07:58:05;;;;;;;18.00;12.10;;;8.20;99.90;;;;;;5032132;28;20052;-75
2022/10/20 08:00:30;;;;;;;13.00;11.05;;;8.30;99.90;;;;;;5028363;28;20489;-75
2022/10/20 08:02:56;;;;;;;16.63;11.30;;;8.30;99.90;;;;;;5025073;28;20363;-76
2022/10/20 08:05:22;;;;;;;15.68;11.75;;;8.40;99.90;;;;;;5022097;28;20057;-76
2022/10/20 08:07:47;;;;;;;16.70;11.88;;;8.60;99.90;;;;;;5031897;28;20029;-76
2022/10/20 08:10:13;;;;;;;18.30;10.65;;;8.60;99.90;;;;;;5018928;28;20791;-76
2022/10/20 08:12:39;;;;;;;14.95;10.73;;;8.70;99.90;;;;;;5029690;28;20017;-75
2022/10/20 08:15:05;;;;;;;17.10;11.38;;;8.80;99.90;;;;;;5030487;28;20413;-77
2022/10/20 08:17:30;;;;;;;16.75;11.27;;;8.90;99.90;;;;;;5030224;28;20025;-76
2022/10/20 08:19:56;;;;;;;19.80;10.60;;;9.00;99.90;;;;;;5025878;28;20096;-76
2022/10/20 08:22:22;;;;;;;14.35;10.38;;;9.20;99.90;;;;;;5032436;28;20069;-76
2022/10/20 08:24:47;;;;;;;15.57;11.27;;;9.20;99.90;;;;;;5032106;28;20067;-76
2022/10/20 08:27:13;;;;;;;17.30;11.55;;;9.30;99.90;;;;;;5045222;28;20045;-75
2022/10/20 08:29:39;;;;;;;15.32;10.95;;;9.40;99.90;;;;;;5036233;28;20037;-76
2022/10/20 08:32:04;;;;;;;12.65;9.38;;;9.40;99.90;;;;;;5037914;28;20025;-75
2022/10/20 08:34:30;;;;;;;12.57;9.95;;;9.40;99.90;;;;;;5036413;28;20030;-76
2022/10/20 08:36:56;;;;;;;12.35;9.93;;;9.50;99.90;;;;;;5033690;28;20029;-75
2022/10/20 08:39:22;;;;;;;14.40;9.68;;;9.60;99.90;;;;;;5035587;28;20021;-78
2022/10/20 08:41:49;;;;;;;12.98;10.13;;;9.60;99.90;;;;;;5033219;28;20032;-76
2022/10/20 08:44:23;;;;;;;13.45;9.38;;;9.70;99.90;;;;;;5038301;28;20175;-78
2022/10/20 08:46:49;;;;;;;14.90;10.07;;;9.70;99.90;;;;;;5037619;28;20615;-77
2022/10/20 08:49:23;;;;;;;12.70;9.45;;;9.70;99.90;;;;;;5034304;28;20076;-77
2022/10/20 08:51:49;;;;;;;12.25;8.88;;;9.80;99.90;;;;;;5027464;28;20120;-76
2022/10/20 08:54:16;;;;;;;11.88;8.73;;;9.90;99.90;;;;;;5033761;28;20117;-78
2022/10/20 08:56:43;;;;;;;13.07;10.93;;;10.00;99.90;;;;;;5033994;28;20400;-77
2022/10/20 08:59:32;;;;;;;12.48;9.75;;;10.10;99.90;;;;;;5033223;28;20037;-76
2022/10/20 09:01:58;;;;;;;11.98;9.65;;;10.20;99.90;;;;;;5033579;28;20095;-76
2022/10/20 09:04:49;;;;;;;14.82;9.60;;;10.30;99.90;;;;;;5032115;28;20481;-76
2022/10/20 09:07:20;;;;;;;13.65;9.40;;;10.30;99.90;;;;;;5028657;28;20041;-77
2022/10/20 09:09:46;;;;;;;16.55;9.85;;;10.40;99.90;;;;;;5035018;28;20544;-77
2022/10/20 09:12:14;;;;;;;13.07;9.55;;;10.50;99.90;;;;;;5037387;28;20384;-77
2022/10/20 09:14:39;;;;;;;10.93;9.00;;;10.60;99.90;;;;;;5027857;28;20028;-78
2022/10/20 09:17:12;;;;;;;12.77;8.55;;;10.60;99.90;;;;;;5043357;28;20025;-76
2022/10/20 09:19:38;;;;;;;9.07;8.02;;;10.70;99.90;;;;;;5031359;28;20087;-76
2022/10/20 09:22:06;;;;;;;11.00;9.35;;;10.80;99.90;;;;;;5030748;28;20124;-77
2022/10/20 09:24:34;;;;;;;10.00;8.30;;;10.80;99.90;;;;;;5025467;28;20762;-77
2022/10/20 09:27:20;;;;;;;11.52;8.52;;;10.90;99.90;;;;;;5031052;28;20112;-77
2022/10/20 09:29:45;;;;;;;14.48;8.30;;;11.00;99.90;;;;;;5040998;28;20091;-78
2022/10/20 09:32:30;;;;;;;13.13;8.57;;;11.10;99.90;;;;;;5026876;28;20485;-77
2022/10/20 09:35:21;;;;;;;8.93;7.35;;;11.30;99.90;;;;;;5026162;28;20033;-78
2022/10/20 09:38:18;;;;;;;10.82;8.75;;;11.40;99.90;;;;;;5034376;28;20045;-77
2022/10/20 09:41:19;;;;;;;13.88;8.38;;;11.70;99.90;;;;;;5029823;28;20033;-77
2022/10/20 09:43:55;;;;;;;8.98;6.97;;;11.90;99.90;;;;;;5036345;28;20685;-77
2022/10/20 09:46:27;;;;;;;11.38;7.97;;;12.00;99.90;;;;;;5031318;28;20296;-80
2022/10/20 09:48:53;;;;;;;10.57;8.10;;;12.00;99.90;;;;;;5030545;28;20056;-76
2022/10/20 09:51:27;;;;;;;10.77;7.80;;;12.10;99.90;;;;;;5031679;28;20025;-76
2022/10/20 09:54:04;;;;;;;7.78;6.97;;;12.00;99.90;;;;;;5037781;28;20025;-76
2022/10/20 09:56:35;;;;;;;9.88;7.68;;;11.90;99.90;;;;;;5037695;28;20077;-76
2022/10/20 09:59:05;;;;;;;12.48;7.05;;;11.80;99.90;;;;;;5034292;28;20025;-76
2022/10/20 10:01:31;;;;;;;9.85;7.25;;;11.90;99.90;;;;;;5037679;28;20029;-76
2022/10/20 10:04:00;;;;;;;9.35;7.22;;;11.80;99.90;;;;;;5032803;28;20508;-76
2022/10/20 10:06:31;;;;;;;11.50;8.15;;;11.90;99.90;;;;;;5029558;28;20021;-77
2022/10/20 10:08:59;;;;;;;9.40;7.15;;;11.90;99.90;;;;;;5043001;28;20045;-76
2022/10/20 10:11:34;;;;;;;9.07;8.15;;;11.90;99.90;;;;;;5036212;28;20044;-72
2022/10/20 10:14:01;;;;;;;10.98;7.68;;;12.00;99.90;;;;;;5034776;28;20041;-72
2022/10/20 10:16:27;;;;;;;11.80;8.00;;;12.10;99.90;;;;;;5027659;28;20129;-72
2022/10/20 10:19:04;;;;;;;11.88;7.47;;;12.20;99.90;;;;;;5028971;28;20486;-72
2022/10/20 10:21:45;;;;;;;9.13;7.82;;;12.30;99.90;;;;;;5027229;28;20040;-72
2022/10/20 10:24:47;;;;;;;9.63;7.63;;;12.30;99.90;;;;;;5046548;28;20029;-72
2022/10/20 10:27:18;;;;;;;9.43;7.63;;;12.40;99.90;;;;;;5043533;28;20040;-72
2022/10/20 10:29:44;;;;;;;8.57;6.78;;;12.50;99.90;;;;;;5036953;28;20529;-73
2022/10/20 10:32:27;;;;;;;8.90;6.55;;;12.50;99.90;;;;;;5027112;28;20115;-73
2022/10/20 10:35:06;;;;;;;9.90;6.78;;;12.60;99.90;;;;;;5029465;28;20033;-72
2022/10/20 10:37:34;;;;;;;10.95;7.07;;;12.70;99.90;;;;;;5028937;28;20045;-73
2022/10/20 10:40:10;;;;;;;10.88;6.82;;;12.80;99.90;;;;;;5039534;28;20504;-72
2022/10/20 10:42:51;;;;;;;9.05;7.03;;;12.80;99.90;;;;;;5036266;28;20428;-72
2022/10/20 10:45:19;;;;;;;8.05;6.88;;;12.90;99.90;;;;;;5029038;28;20504;-73
2022/10/20 10:48:17;;;;;;;7.88;6.88;;;13.00;99.90;;;;;;5038900;28;20048;-72
2022/10/20 10:50:52;;;;;;;12.45;7.53;;;13.00;99.90;;;;;;5046722;28;20029;-72
2022/10/20 10:53:51;;;;;;;12.38;6.80;;;13.00;99.90;;;;;;5042867;28;20051;-72
2022/10/20 10:56:39;;;;;;;9.75;7.20;;;13.00;99.90;;;;;;5044692;28;20037;-72
2022/10/20 10:59:11;;;;;;;7.38;6.68;;;13.10;99.90;;;;;;5041514;28;20034;-72
2022/10/20 11:01:46;;;;;;;9.32;6.72;;;13.10;99.90;;;;;;5036961;28;20053;-72
2022/10/20 11:04:35;;;;;;;9.93;6.80;;;13.10;99.90;;;;;;5042476;28;20171;-72
2022/10/20 11:07:30;;;;;;;9.63;7.13;;;13.20;99.90;;;;;;5047893;28;20075;-72
2022/10/20 11:10:09;;;;;;;9.13;6.72;;;13.20;99.90;;;;;;5027451;28;20500;-72
2022/10/20 11:12:40;;;;;;;8.18;7.03;;;13.30;99.90;;;;;;5026529;28;20606;-72
2022/10/20 11:15:16;;;;;;;10.98;7.30;;;13.40;99.90;;;;;;5025686;28;20616;-72
2022/10/20 11:18:05;;;;;;;10.45;8.23;;;13.50;99.90;;;;;;5034730;28;20037;-72
2022/10/20 11:20:49;;;;;;;11.85;7.35;;;13.70;99.90;;;;;;5028288;28;20032;-73
2022/10/20 11:23:44;;;;;;;8.48;7.03;;;13.90;99.90;;;;;;5025939;28;20025;-72
2022/10/20 11:26:25;;;;;;;10.30;7.32;;;14.10;99.90;;;;;;5030480;28;20029;-73
2022/10/20 11:28:53;;;;;;;10.60;7.90;;;14.20;99.90;;;;;;5028865;28;20099;-73
2022/10/20 11:31:48;;;;;;;11.68;8.77;;;14.20;99.90;;;;;;5027572;28;20056;-73
2022/10/20 11:34:35;;;;;;;10.60;8.73;;;14.10;99.90;;;;;;5045140;28;20136;-73
2022/10/20 11:37:24;;;;;;;14.68;8.82;;;13.90;99.90;;;;;;5028460;28;20437;-74
2022/10/20 11:40:08;;;;;;;9.77;8.15;;;13.90;99.90;;;;;;5030388;28;20509;-73
2022/10/20 11:43:11;;;;;;;14.18;8.70;;;13.70;99.90;;;;;;5022076;28;20025;-74
2022/10/20 11:45:41;;;;;;;12.05;9.30;;;13.60;99.90;;;;;;5032041;28;20042;-75
2022/10/20 11:48:28;;;;;;;16.38;9.02;;;13.50;99.90;;;;;;5035167;28;20040;-75
2022/10/20 11:51:24;;;;;;;10.77;9.23;;;13.50;99.90;;;;;;5023977;28;20025;-75
2022/10/20 11:54:14;;;;;;;11.90;9.07;;;13.40;99.90;;;;;;4683493;28;9999987;-74
2022/10/20 11:57:07;;;;;;;11.65;8.90;;;13.40;99.90;;;;;;5022228;28;20027;-74
2022/10/20 11:59:44;;;;;;;13.52;8.75;;;13.40;99.90;;;;;;5030268;28;20128;-75
2022/10/20 12:02:16;;;;;;;14.77;9.65;;;13.30;99.90;;;;;;5025130;28;20025;-75
2022/10/20 12:05:29;;;;;;;11.95;9.85;;;13.30;99.90;;;;;;5028772;28;20114;-75
2022/10/20 12:08:20;;;;;;;13.57;9.13;;;13.20;99.90;;;;;;5022507;28;20113;-75
2022/10/20 12:11:13;;;;;;;14.60;9.55;;;13.20;99.90;;;;;;5025208;28;20397;-75
2022/10/20 12:13:45;;;;;;;14.52;9.88;;;;;;;;;;5020172;28;20509;-74
2022/10/20 12:16:11;;;;;;;10.65;8.75;;;13.10;99.90;;;;;;5024395;28;20116;-74
2022/10/20 12:18:36;;;;;;;11.85;9.95;;;13.00;99.90;;;;;;5023610;28;20106;-74
2022/10/20 12:21:08;;;;;;;15.32;11.20;;;13.00;99.90;;;;;;5025638;28;20712;-74
2022/10/20 12:23:47;;;;;;;16.15;11.77;;;12.90;99.90;;;;;;5030461;28;20028;-75
2022/10/20 12:26:28;;;;;;;14.48;11.52;;;12.80;99.90;;;;;;5026885;28;20029;-76
2022/10/20 12:28:58;;;;;;;14.73;11.20;;;12.70;99.90;;;;;;5032419;28;20040;-75
2022/10/20 12:31:27;;;;;;;16.27;12.93;;;12.60;99.90;;;;;;5023895;28;20028;-74
2022/10/20 12:33:52;;;;;;;15.18;12.13;;;12.60;99.90;;;;;;5023849;28;20017;-75
2022/10/20 12:36:18;;;;;;;14.55;11.95;;;12.50;99.90;;;;;;5017850;28;20017;-75
2022/10/20 12:38:46;;;;;;;15.05;11.50;;;12.50;99.90;;;;;;5022310;28;20026;-75
2022/10/20 12:41:28;;;;;;;17.10;12.68;;;12.50;99.90;;;;;;5032796;28;20536;-74
2022/10/20 12:43:59;;;;;;;21.08;12.68;;;12.50;99.90;;;;;;5022628;28;20672;-75
2022/10/20 12:46:31;;;;;;;16.60;12.18;;;12.40;99.90;;;;;;5021663;28;20022;-75
2022/10/20 12:49:01;;;;;;;16.13;12.23;;;12.40;99.90;;;;;;5037473;28;20173;-74
2022/10/20 12:51:34;;;;;;;14.45;11.32;;;12.40;99.90;;;;;;5029188;28;20045;-74
2022/10/20 12:54:18;;;;;;;13.43;10.88;;;12.30;99.90;;;;;;5024372;28;20470;-75
2022/10/20 12:56:45;;;;;;;14.90;11.43;;;12.20;99.90;;;;;;5026886;28;20036;-74